createdAt,value
2022-11-04T00:01:53.667Z,5.20
2022-11-04T00:04:22.045Z,4.95
2022-11-04T00:06:49.101Z,5.55
2022-11-04T00:09:20.779Z,4.75
2022-11-04T00:12:06.236Z,4.95
2022-11-04T00:14:33.192Z,4.65
2022-11-04T00:17:18.617Z,4.70
2022-11-04T00:20:22.306Z,4.03
2022-11-04T00:23:08.306Z,4.38
2022-11-04T00:25:53.795Z,4.15
2022-11-04T00:28:39.175Z,4.18
2022-11-04T00:31:25.581Z,4.75
2022-11-04T00:33:53.501Z,4.82
2022-11-04T00:36:20.366Z,4.40
2022-11-04T00:38:47.252Z,4.95
2022-11-04T00:41:26.844Z,5.00
2022-11-04T00:43:58.716Z,5.15
2022-11-04T00:46:26.261Z,4.50
2022-11-04T00:48:53.208Z,5.47
2022-11-04T00:51:21.562Z,5.90
2022-11-04T00:53:48.944Z,5.43
2022-11-04T00:56:15.758Z,5.63
2022-11-04T00:58:42.642Z,5.55
2022-11-04T01:01:12.643Z,5.18
2022-11-04T01:03:39.771Z,5.68
2022-11-04T01:06:07.051Z,5.65
2022-11-04T01:08:34.583Z,6.78
2022-11-04T01:11:04.769Z,5.43
2022-11-04T01:13:32.127Z,5.75
2022-11-04T01:16:03.737Z,5.00
2022-11-04T01:18:30.659Z,5.73
2022-11-04T01:21:04.611Z,6.38
2022-11-04T01:23:31.620Z,5.43
2022-11-04T01:25:58.463Z,6.05
2022-11-04T01:28:25.375Z,5.50
2022-11-04T01:30:52.365Z,4.22
2022-11-04T01:33:19.226Z,4.10
2022-11-04T01:35:46.141Z,3.50
2022-11-04T01:38:12.988Z,3.30
2022-11-04T01:40:40.195Z,3.00
2022-11-04T01:43:14.262Z,2.90
2022-11-04T01:45:41.451Z,3.08
2022-11-04T01:48:22.676Z,2.75
2022-11-04T01:50:49.502Z,2.92
2022-11-04T01:53:26.331Z,3.55
2022-11-04T01:55:57.886Z,4.25
2022-11-04T01:58:29.849Z,3.83
2022-11-04T02:00:56.873Z,3.40
2022-11-04T02:03:43.739Z,3.65
2022-11-04T02:06:10.588Z,3.15
2022-11-04T02:08:37.424Z,3.40
2022-11-04T02:11:04.643Z,3.63
2022-11-04T02:13:32.522Z,3.13
2022-11-04T02:16:18.725Z,2.90
2022-11-04T02:18:58.399Z,2.88
2022-11-04T02:21:31.515Z,2.00
2022-11-04T02:24:04.658Z,2.30
2022-11-04T02:26:50.508Z,2.13
2022-11-04T02:29:44.610Z,1.92
2022-11-04T02:32:29.956Z,2.30
2022-11-04T02:35:14.941Z,2.03
2022-11-04T02:38:19.682Z,2.35
2022-11-04T02:41:12.262Z,2.10
2022-11-04T02:43:57.741Z,2.25
2022-11-04T02:46:51.089Z,1.90
2022-11-04T02:49:25.235Z,1.98
2022-11-04T02:51:57.984Z,2.10
2022-11-04T02:54:33.436Z,2.15
2022-11-04T02:57:00.726Z,2.22
2022-11-04T02:59:50.546Z,3.35
2022-11-04T03:02:21.641Z,3.85
2022-11-04T03:04:50.533Z,5.55
2022-11-04T03:07:18.888Z,5.78
2022-11-04T03:09:49.232Z,6.53
2022-11-04T03:12:17.980Z,7.38
2022-11-04T03:14:51.041Z,7.65
2022-11-04T03:17:27.836Z,7.97
2022-11-04T03:19:59.084Z,8.82
2022-11-04T03:22:29.627Z,8.60
2022-11-04T03:24:56.472Z,9.02
2022-11-04T03:27:31.473Z,9.40
2022-11-04T03:30:07.958Z,8.88
2022-11-04T03:32:43.055Z,8.38
2022-11-04T03:35:10.184Z,9.02
2022-11-04T03:37:36.954Z,8.68
2022-11-04T03:40:03.991Z,7.97
2022-11-04T03:42:31.640Z,8.90
2022-11-04T03:44:58.546Z,8.57
2022-11-04T03:47:29.569Z,8.15
2022-11-04T03:50:02.768Z,7.88
2022-11-04T03:52:29.661Z,7.30
2022-11-04T03:54:56.457Z,6.78
2022-11-04T03:57:35.318Z,6.93
2022-11-04T04:00:10.886Z,7.05
2022-11-04T04:02:56.099Z,6.80
2022-11-04T04:05:29.855Z,7.75
2022-11-04T04:08:06.089Z,6.85
2022-11-04T04:11:04.779Z,6.63
2022-11-04T04:13:31.617Z,6.30
2022-11-04T04:16:03.478Z,6.38
2022-11-04T04:18:44.691Z,6.80
2022-11-04T04:21:15.059Z,6.85
2022-11-04T04:24:00.461Z,6.43
2022-11-04T04:26:45.923Z,5.80
2022-11-04T04:29:12.781Z,5.32
2022-11-04T04:31:51.522Z,6.68
2022-11-04T04:34:29.005Z,5.43
2022-11-04T04:37:00.536Z,5.28
2022-11-04T04:39:50.793Z,5.53
2022-11-04T04:42:36.801Z,5.40
2022-11-04T04:45:05.977Z,5.05
2022-11-04T04:47:41.439Z,5.28
2022-11-04T04:50:08.663Z,4.38
2022-11-04T04:52:38.486Z,4.60
2022-11-04T04:55:05.810Z,4.82
2022-11-04T04:57:32.690Z,4.97
2022-11-04T04:59:59.463Z,5.55
2022-11-04T05:02:26.387Z,4.95
2022-11-04T05:04:53.280Z,5.10
2022-11-04T05:07:20.124Z,4.63
2022-11-04T05:09:47.062Z,4.60
2022-11-04T05:12:13.962Z,5.45
2022-11-04T05:14:40.937Z,5.10
2022-11-04T05:17:07.899Z,5.32
2022-11-04T05:19:34.780Z,5.60
2022-11-04T05:22:01.613Z,5.55
2022-11-04T05:24:28.390Z,5.70
2022-11-04T05:26:55.218Z,5.90
2022-11-04T05:29:22.203Z,6.47
2022-11-04T05:31:49.034Z,6.78
2022-11-04T05:34:15.922Z,7.30
2022-11-04T05:36:42.796Z,7.55
2022-11-04T05:39:12.644Z,7.95
2022-11-04T05:41:39.406Z,9.32
2022-11-04T05:44:08.448Z,8.85
2022-11-04T05:46:35.254Z,9.85
2022-11-04T05:49:02.161Z,9.95
2022-11-04T05:51:29.029Z,10.02
2022-11-04T05:53:55.853Z,9.95
2022-11-04T05:56:22.712Z,9.80
2022-11-04T05:58:49.580Z,9.43
2022-11-04T06:01:35.881Z,9.07
2022-11-04T06:04:03.644Z,9.73
2022-11-04T06:06:32.573Z,9.20
2022-11-04T06:09:00.377Z,8.93
2022-11-04T06:11:28.237Z,9.93
2022-11-04T06:13:55.610Z,9.10
2022-11-04T06:16:22.640Z,9.43
2022-11-04T06:18:49.601Z,9.65
2022-11-04T06:21:16.325Z,9.02
2022-11-04T06:23:43.309Z,9.27
2022-11-04T06:26:10.745Z,10.00
2022-11-04T06:28:37.641Z,8.93
2022-11-04T06:31:05.143Z,8.65
2022-11-04T06:33:36.487Z,9.15
2022-11-04T06:36:05.232Z,8.25
2022-11-04T06:38:33.090Z,8.50
2022-11-04T06:40:59.925Z,8.63
2022-11-04T06:43:26.726Z,8.82
2022-11-04T06:45:57.277Z,9.32
2022-11-04T06:48:24.372Z,8.52
2022-11-04T06:50:51.308Z,8.82
2022-11-04T06:53:18.179Z,7.55
2022-11-04T06:55:44.956Z,8.27
2022-11-04T06:58:11.837Z,7.68
2022-11-04T07:00:38.756Z,7.03
2022-11-04T07:03:05.816Z,7.25
2022-11-04T07:05:33.828Z,6.70
2022-11-04T07:08:00.667Z,6.72
2022-11-04T07:10:27.530Z,6.40
2022-11-04T07:12:55.121Z,6.93
2022-11-04T07:15:27.134Z,6.38
2022-11-04T07:17:54.412Z,7.05
2022-11-04T07:20:21.216Z,7.30
2022-11-04T07:22:48.057Z,7.13
2022-11-04T07:25:15.018Z,7.13
2022-11-04T07:27:42.307Z,7.70
2022-11-04T07:30:09.661Z,7.70
2022-11-04T07:32:36.494Z,8.30
2022-11-04T07:35:03.473Z,6.63
2022-11-04T07:37:30.304Z,6.72
2022-11-04T07:39:57.136Z,7.30
2022-11-04T07:42:24.075Z,6.53
2022-11-04T07:44:54.690Z,6.72
2022-11-04T07:47:22.101Z,7.43
2022-11-04T07:49:48.971Z,6.80
2022-11-04T07:52:15.904Z,6.63
2022-11-04T07:54:42.748Z,6.90
2022-11-04T07:57:09.647Z,6.90
2022-11-04T07:59:36.438Z,6.88
2022-11-04T08:02:03.459Z,7.32
2022-11-04T08:04:30.301Z,6.60
2022-11-04T08:06:57.131Z,6.68
2022-11-04T08:09:24.337Z,6.80
2022-11-04T08:11:51.214Z,7.18
2022-11-04T08:14:17.995Z,7.07
2022-11-04T08:16:44.977Z,6.88
2022-11-04T08:19:11.807Z,6.82
2022-11-04T08:21:38.772Z,7.43
2022-11-04T08:24:06.071Z,7.03
2022-11-04T08:26:33.002Z,7.20
2022-11-04T08:29:02.432Z,7.00
2022-11-04T08:31:30.669Z,7.28
2022-11-04T08:33:57.757Z,7.90
2022-11-04T08:36:26.725Z,7.95
2022-11-04T08:38:53.893Z,8.93
2022-11-04T08:41:23.470Z,8.20
2022-11-04T08:43:50.326Z,8.00
2022-11-04T08:46:17.260Z,7.85
2022-11-04T08:48:44.267Z,7.53
2022-11-04T08:51:14.158Z,7.18
2022-11-04T08:53:40.980Z,7.20
2022-11-04T08:56:12.613Z,6.63
2022-11-04T08:58:39.754Z,6.13
2022-11-04T09:01:06.954Z,6.70
2022-11-04T09:03:34.916Z,5.88
2022-11-04T09:06:01.864Z,5.72
2022-11-04T09:08:28.789Z,5.78
2022-11-04T09:10:55.715Z,5.00
2022-11-04T09:13:22.579Z,4.88
2022-11-04T09:15:49.389Z,4.45
2022-11-04T09:18:16.329Z,4.43
2022-11-04T09:20:43.245Z,4.22
2022-11-04T09:23:10.481Z,4.20
2022-11-04T09:25:37.759Z,4.00
2022-11-04T09:28:04.988Z,3.90
2022-11-04T09:30:32.157Z,4.05
2022-11-04T09:32:59.263Z,4.38
2022-11-04T09:35:27.678Z,4.22
2022-11-04T09:37:54.887Z,3.88
2022-11-04T09:40:23.704Z,4.68
2022-11-04T09:43:13.654Z,4.47
2022-11-04T09:45:41.469Z,4.53
2022-11-04T09:48:12.586Z,4.50
2022-11-04T09:50:50.931Z,4.53
2022-11-04T09:53:18.746Z,4.40
2022-11-04T09:56:22.884Z,4.55
2022-11-04T09:58:50.501Z,4.10
2022-11-04T10:01:23.533Z,4.00
2022-11-04T10:03:56.800Z,4.15
2022-11-04T10:06:30.631Z,4.18
2022-11-04T10:09:00.559Z,4.10
2022-11-04T10:11:45.513Z,4.13
2022-11-04T10:14:35.581Z,3.70
2022-11-04T10:17:22.968Z,3.88
2022-11-04T10:20:16.473Z,4.18
2022-11-04T10:23:02.501Z,3.60
2022-11-04T10:25:37.161Z,4.40
2022-11-04T10:28:04.219Z,3.38
2022-11-04T10:30:32.103Z,3.70
2022-11-04T10:33:05.033Z,3.60
2022-11-04T10:35:45.485Z,5.03
2022-11-04T10:38:22.687Z,4.00
2022-11-04T10:40:51.548Z,4.43
2022-11-04T10:43:36.409Z,3.92
2022-11-04T10:46:39.217Z,3.70
2022-11-04T10:49:54.760Z,3.88
2022-11-04T10:52:29.056Z,3.80
2022-11-04T10:54:56.510Z,4.05
2022-11-04T10:57:25.183Z,4.32
2022-11-04T10:59:55.617Z,4.82
2022-11-04T11:02:49.431Z,4.78
2022-11-04T11:05:19.236Z,4.85
2022-11-04T11:07:50.891Z,5.20
2022-11-04T11:10:22.994Z,4.72
2022-11-04T11:13:02.197Z,4.80
2022-11-04T11:15:32.426Z,4.55
2022-11-04T11:18:08.130Z,4.25
2022-11-04T11:20:37.781Z,4.63
2022-11-04T11:23:10.305Z,4.72
2022-11-04T11:25:45.611Z,4.40
2022-11-04T11:28:23.139Z,4.35
2022-11-04T11:30:52.896Z,4.32
2022-11-04T11:33:32.125Z,5.07
2022-11-04T11:36:13.059Z,4.45
2022-11-04T11:38:51.694Z,5.38
2022-11-04T11:41:25.201Z,4.63
2022-11-04T11:43:53.640Z,4.90
2022-11-04T11:46:24.653Z,4.38
2022-11-04T11:48:53.052Z,5.38
2022-11-04T11:51:27.553Z,5.55
2022-11-04T11:54:33.884Z,4.50
2022-11-04T11:57:24.955Z,4.40
2022-11-04T12:03:03.585Z,3.42
2022-11-04T12:11:37.143Z,3.50
2022-11-04T12:14:13.791Z,3.50
2022-11-04T12:16:47.944Z,4.00
2022-11-04T12:19:32.098Z,3.55
2022-11-04T12:22:27.027Z,4.25
2022-11-04T12:25:17.667Z,3.97
2022-11-04T12:27:52.461Z,3.13
2022-11-04T12:30:29.824Z,3.15
2022-11-04T12:33:28.325Z,2.75
2022-11-04T12:36:03.772Z,2.45
2022-11-04T12:38:41.366Z,2.47
2022-11-04T12:42:18.942Z,2.72
2022-11-04T12:44:58.722Z,2.60
2022-11-04T12:47:42.965Z,2.50
2022-11-04T12:50:09.912Z,2.42
2022-11-04T12:52:49.766Z,2.50
2022-11-04T12:55:43.797Z,2.35
2022-11-04T12:58:35.235Z,2.60
2022-11-04T13:01:12.423Z,2.30
2022-11-04T13:03:52.694Z,2.50
2022-11-04T13:06:42.698Z,2.47
2022-11-04T13:09:32.224Z,2.58
2022-11-04T13:12:07.224Z,2.30
2022-11-04T13:14:45.356Z,2.58
2022-11-04T13:17:13.971Z,2.40
2022-11-04T13:19:48.666Z,2.30
2022-11-04T13:22:32.866Z,2.20
2022-11-04T13:25:06.793Z,2.35
2022-11-04T13:27:47.335Z,2.45
2022-11-04T13:30:31.440Z,2.25
2022-11-04T13:33:36.161Z,2.05
2022-11-04T13:36:27.597Z,2.05
2022-11-04T13:38:55.185Z,2.00
2022-11-04T13:42:03.832Z,2.20
2022-11-04T13:44:39.119Z,1.55
2022-11-04T13:47:22.191Z,1.63
2022-11-04T13:49:50.961Z,1.70
2022-11-04T13:52:18.006Z,1.70
2022-11-04T13:54:52.861Z,1.90
2022-11-04T13:57:21.231Z,1.90
2022-11-04T14:00:24.382Z,1.92
2022-11-04T14:03:00.059Z,1.75
2022-11-04T14:05:32.255Z,1.80
2022-11-04T14:08:02.244Z,1.90
2022-11-04T14:10:47.958Z,1.70
2022-11-04T14:13:29.988Z,2.05
2022-11-04T14:16:09.497Z,2.08
2022-11-04T14:18:40.687Z,2.10
2022-11-04T14:21:14.478Z,2.08
2022-11-04T14:23:43.901Z,1.80
2022-11-04T14:26:16.932Z,1.88
2022-11-04T14:29:00.396Z,1.95
2022-11-04T14:31:40.678Z,1.90
2022-11-04T14:34:08.093Z,2.15
2022-11-04T14:36:40.998Z,1.98
2022-11-04T14:39:10.974Z,1.90
2022-11-04T14:41:40.936Z,1.80
2022-11-04T14:44:08.759Z,1.65
2022-11-04T14:46:40.275Z,1.95
2022-11-04T14:49:07.202Z,1.70
2022-11-04T14:51:40.233Z,1.40
2022-11-04T14:54:18.884Z,1.60
2022-11-04T14:56:46.973Z,1.70
2022-11-04T14:59:24.748Z,1.77
2022-11-04T15:01:52.542Z,1.80
2022-11-04T15:04:30.836Z,1.50
2022-11-04T15:07:02.139Z,1.90
2022-11-04T15:09:32.797Z,1.90
2022-11-04T15:12:29.878Z,1.92
2022-11-04T15:14:57.210Z,2.10
2022-11-04T15:17:26.798Z,2.17
2022-11-04T15:19:54.751Z,2.10
2022-11-04T15:22:21.633Z,2.00
2022-11-04T15:24:50.684Z,2.40
2022-11-04T15:27:18.727Z,1.90
2022-11-04T15:29:58.946Z,1.83
2022-11-04T15:32:25.957Z,1.80
2022-11-04T15:34:53.721Z,2.17
2022-11-04T15:37:22.015Z,1.70
2022-11-04T15:39:50.105Z,1.92
2022-11-04T15:42:37.168Z,1.75
2022-11-04T15:45:40.333Z,1.80
2022-11-04T15:48:30.073Z,1.70
2022-11-04T15:51:21.448Z,2.00
2022-11-04T15:53:48.410Z,1.65
2022-11-04T15:56:19.919Z,2.10
2022-11-04T15:58:46.814Z,1.60
2022-11-04T16:01:17.817Z,1.80
2022-11-04T16:03:53.625Z,1.88
2022-11-04T16:06:35.571Z,2.00
2022-11-04T16:09:05.402Z,2.10
2022-11-04T16:11:32.333Z,2.10
2022-11-04T16:14:25.208Z,2.08
2022-11-04T16:19:23.489Z,2.28
2022-11-04T16:22:09.259Z,2.35
2022-11-04T16:24:40.088Z,2.35
2022-11-04T16:27:10.799Z,2.70
2022-11-04T16:29:37.764Z,2.30
2022-11-04T16:32:09.021Z,3.00
2022-11-04T16:34:36.061Z,2.92
2022-11-04T16:37:02.962Z,3.20
2022-11-04T16:39:30.582Z,2.60
2022-11-04T16:41:57.459Z,3.42
2022-11-04T16:44:24.885Z,2.92
2022-11-04T16:46:52.094Z,2.53
2022-11-04T16:49:20.613Z,2.70
2022-11-04T16:51:49.646Z,2.55
2022-11-04T16:54:16.554Z,2.65
2022-11-04T16:56:44.056Z,2.83
2022-11-04T16:59:11.671Z,3.25
2022-11-04T17:01:40.097Z,4.00
2022-11-04T17:04:07.553Z,4.53
2022-11-04T17:06:34.977Z,4.75
2022-11-04T17:09:01.952Z,4.82
2022-11-04T17:11:31.836Z,4.20
2022-11-04T17:13:58.795Z,3.88
2022-11-04T17:16:25.716Z,3.90
2022-11-04T17:18:52.550Z,4.90
2022-11-04T17:21:20.303Z,3.67
2022-11-04T17:23:47.723Z,3.65
2022-11-04T17:26:14.821Z,3.40
2022-11-04T17:28:42.087Z,3.20
2022-11-04T17:31:12.113Z,2.58
2022-11-04T17:33:38.910Z,2.70
2022-11-04T17:36:07.870Z,2.55
2022-11-04T17:38:34.887Z,2.60
2022-11-04T17:41:20.223Z,3.40
2022-11-04T17:44:02.288Z,2.88
2022-11-04T17:46:35.229Z,3.85
2022-11-04T17:49:03.073Z,5.25
2022-11-04T17:51:30.500Z,8.50
2022-11-04T17:53:57.375Z,9.98
2022-11-04T17:56:24.469Z,10.15
2022-11-04T17:58:51.463Z,8.82
2022-11-04T18:01:20.307Z,8.50
2022-11-04T18:03:47.390Z,8.23
2022-11-04T18:06:14.313Z,8.25
2022-11-04T18:08:41.112Z,7.70
2022-11-04T18:11:09.708Z,6.75
2022-11-04T18:13:36.720Z,6.47
2022-11-04T18:16:10.990Z,6.68
2022-11-04T18:18:37.834Z,7.22
2022-11-04T18:21:05.900Z,7.35
2022-11-04T18:23:32.695Z,7.25
2022-11-04T18:25:59.657Z,8.63
2022-11-04T18:28:26.746Z,9.00
2022-11-04T18:30:53.639Z,8.73
2022-11-04T18:33:20.490Z,12.55
2022-11-04T18:35:47.442Z,14.52
2022-11-04T18:38:14.331Z,11.90
2022-11-04T18:40:41.176Z,11.50
2022-11-04T18:43:09.289Z,10.20
2022-11-04T18:45:36.690Z,10.55
2022-11-04T18:48:03.772Z,9.40
2022-11-04T18:50:31.585Z,9.35
2022-11-04T18:52:58.409Z,8.10
2022-11-04T18:55:25.323Z,8.00
2022-11-04T18:57:55.489Z,7.00
2022-11-04T19:00:22.624Z,6.78
2022-11-04T19:02:49.720Z,7.38
2022-11-04T19:05:16.907Z,7.50
2022-11-04T19:07:44.131Z,7.80
2022-11-04T19:10:11.878Z,7.03
2022-11-04T19:12:57.839Z,7.30
2022-11-04T19:15:25.047Z,7.32
2022-11-04T19:17:51.892Z,7.82
2022-11-04T19:20:18.871Z,9.27
2022-11-04T19:22:45.930Z,11.40
2022-11-04T19:25:12.950Z,13.57
2022-11-04T19:27:39.880Z,14.10
2022-11-04T19:30:07.241Z,15.80
2022-11-04T19:32:34.082Z,19.80
2022-11-04T19:35:01.205Z,24.38
2022-11-04T19:37:28.212Z,30.08
2022-11-04T19:39:55.096Z,40.75
2022-11-04T19:42:40.245Z,35.35
2022-11-04T19:45:07.617Z,39.03
2022-11-04T19:47:34.494Z,37.65
2022-11-04T19:50:01.552Z,27.75
2022-11-04T19:52:28.402Z,16.70
2022-11-04T19:54:55.244Z,12.93
2022-11-04T19:57:22.102Z,14.57
2022-11-04T19:59:49.313Z,10.63
2022-11-04T20:02:16.384Z,11.25
2022-11-04T20:04:43.465Z,10.98
2022-11-04T20:07:10.453Z,14.38
2022-11-04T20:09:37.418Z,15.82
2022-11-04T20:12:22.722Z,15.73
2022-11-04T20:14:49.615Z,15.00
2022-11-04T20:17:16.409Z,12.80
2022-11-04T20:19:43.210Z,13.88
2022-11-04T20:22:10.078Z,13.05
2022-11-04T20:24:36.984Z,12.50
2022-11-04T20:27:03.879Z,12.85
2022-11-04T20:29:30.783Z,15.65
2022-11-04T20:31:58.434Z,18.23
2022-11-04T20:34:28.808Z,19.42
2022-11-04T20:37:00.436Z,18.40
2022-11-04T20:39:27.361Z,15.73
2022-11-04T20:41:54.304Z,14.95
2022-11-04T20:44:21.953Z,14.70
2022-11-04T20:46:48.866Z,16.45
2022-11-04T20:49:15.756Z,21.05
2022-11-04T20:51:54.921Z,20.95
2022-11-04T20:54:22.529Z,23.35
2022-11-04T20:56:49.412Z,19.38
2022-11-04T20:59:18.248Z,17.00
2022-11-04T21:01:46.319Z,15.25
2022-11-04T21:04:15.180Z,16.00
2022-11-04T21:06:42.160Z,16.80
2022-11-04T21:09:09.883Z,16.20
2022-11-04T21:11:38.954Z,17.42
2022-11-04T21:14:06.755Z,16.35
2022-11-04T21:16:34.633Z,15.40
2022-11-04T21:19:02.169Z,16.00
2022-11-04T21:21:33.140Z,14.57
2022-11-04T21:24:04.089Z,14.82
2022-11-04T21:26:34.025Z,15.68
2022-11-04T21:29:02.583Z,14.60
2022-11-04T21:31:30.972Z,13.05
2022-11-04T21:33:57.961Z,14.60
2022-11-04T21:36:25.006Z,13.40
2022-11-04T21:38:51.897Z,13.45
2022-11-04T21:41:23.127Z,13.93
2022-11-04T21:43:57.859Z,12.80
2022-11-04T21:46:25.205Z,12.52
2022-11-04T21:48:52.136Z,11.90
2022-11-04T21:51:20.930Z,12.63
2022-11-04T21:53:47.862Z,12.73
2022-11-04T21:56:28.434Z,11.82
2022-11-04T21:58:55.631Z,11.18
2022-11-04T22:01:25.529Z,11.13
2022-11-04T22:03:53.798Z,10.30
2022-11-04T22:06:20.723Z,10.60
2022-11-04T22:08:49.360Z,10.70
2022-11-04T22:11:27.622Z,9.98
2022-11-04T22:13:58.350Z,10.55
2022-11-04T22:16:33.389Z,10.25
2022-11-04T22:19:02.559Z,10.77
2022-11-04T22:21:30.949Z,11.40
2022-11-04T22:23:57.967Z,11.18
2022-11-04T22:26:27.002Z,11.18
2022-11-04T22:28:54.120Z,11.25
2022-11-04T22:31:32.053Z,10.98
2022-11-04T22:33:59.833Z,11.38
2022-11-04T22:36:27.316Z,10.65
2022-11-04T22:38:54.318Z,11.10
2022-11-04T22:41:23.159Z,10.00
2022-11-04T22:43:50.060Z,9.93
2022-11-04T22:46:19.421Z,10.60
2022-11-04T22:48:46.385Z,10.63
2022-11-04T22:51:13.510Z,9.60
2022-11-04T22:53:40.613Z,10.57
2022-11-04T22:56:08.600Z,9.38
2022-11-04T22:58:35.464Z,10.27
2022-11-04T23:01:08.208Z,11.00
2022-11-04T23:03:35.180Z,9.20
2022-11-04T23:06:03.114Z,10.15
2022-11-04T23:08:30.735Z,10.48
2022-11-04T23:11:17.860Z,9.77
2022-11-04T23:14:13.202Z,8.80
2022-11-04T23:17:07.229Z,8.98
2022-11-04T23:19:34.169Z,8.85
2022-11-04T23:22:19.523Z,9.10
2022-11-04T23:25:04.755Z,8.95
2022-11-04T23:27:54.187Z,9.32
2022-11-04T23:30:21.146Z,8.88
2022-11-04T23:32:49.175Z,9.00
2022-11-04T23:35:34.998Z,8.63
2022-11-04T23:38:01.892Z,8.77
2022-11-04T23:40:29.411Z,8.77
2022-11-04T23:42:56.285Z,10.55
2022-11-04T23:45:41.534Z,9.88
2022-11-04T23:48:30.758Z,9.90
2022-11-04T23:51:17.814Z,10.27
2022-11-04T23:54:03.190Z,9.50
2022-11-04T23:56:48.557Z,9.98
2022-11-04T23:59:35.350Z,9.38
